createdAt,value
2018-01-19T00:00:04.569Z,2.30
2018-01-19T00:02:32.109Z,2.30
2018-01-19T00:04:59.634Z,2.30
2018-01-19T00:07:27.949Z,2.30
2018-01-19T00:09:55.469Z,2.30
2018-01-19T00:12:23.179Z,2.30
2018-01-19T00:14:50.776Z,2.30
2018-01-19T00:17:19.120Z,2.30
2018-01-19T00:19:46.659Z,2.20
2018-01-19T00:22:14.189Z,2.30
2018-01-19T00:24:42.498Z,2.30
2018-01-19T00:27:10.019Z,2.30
2018-01-19T00:29:37.543Z,2.30
2018-01-19T00:32:05.057Z,2.20
2018-01-19T00:34:33.369Z,2.20
2018-01-19T00:37:00.893Z,2.20
2018-01-19T00:39:28.428Z,2.20
2018-01-19T00:41:56.702Z,2.20
2018-01-19T00:44:24.374Z,2.20
2018-01-19T00:46:51.909Z,2.20
2018-01-19T00:49:19.432Z,2.20
2018-01-19T00:51:46.977Z,2.20
2018-01-19T00:54:14.501Z,2.20
2018-01-19T00:56:42.825Z,2.20
2018-01-19T00:59:10.560Z,2.20
2018-01-19T01:01:38.108Z,2.20
2018-01-19T01:04:05.616Z,2.20
2018-01-19T01:06:33.153Z,2.20
2018-01-19T01:09:01.485Z,2.10
2018-01-19T01:11:29.316Z,2.10
2018-01-19T01:13:56.823Z,2.10
2018-01-19T01:16:25.187Z,2.10
2018-01-19T01:18:52.719Z,2.10
2018-01-19T01:21:20.260Z,2.10
2018-01-19T01:23:48.545Z,2.20
2018-01-19T01:26:16.081Z,2.20
2018-01-19T01:28:43.641Z,2.20
2018-01-19T01:31:11.171Z,2.20
2018-01-19T01:33:38.692Z,2.20
2018-01-19T01:36:07.003Z,2.20
2018-01-19T01:38:34.520Z,2.20
2018-01-19T01:41:02.057Z,2.20
2018-01-19T01:43:30.335Z,2.20
2018-01-19T01:45:57.859Z,2.30
2018-01-19T01:48:26.196Z,2.30
2018-01-19T01:50:53.889Z,2.30
2018-01-19T01:53:21.458Z,2.30
2018-01-19T01:55:48.981Z,2.30
2018-01-19T01:58:16.558Z,2.30
2018-01-19T02:00:44.085Z,2.30
2018-01-19T02:03:11.621Z,2.30
2018-01-19T02:05:39.161Z,2.30
2018-01-19T02:08:06.688Z,2.30
2018-01-19T02:10:34.260Z,2.30
2018-01-19T02:13:01.783Z,2.30
2018-01-19T02:15:29.307Z,2.30
2018-01-19T02:17:56.869Z,2.30
2018-01-19T02:20:25.809Z,2.40
2018-01-19T02:22:53.528Z,2.40
2018-01-19T02:25:21.708Z,2.40
2018-01-19T02:27:50.411Z,2.40
2018-01-19T02:30:18.684Z,2.40
2018-01-19T02:32:46.220Z,2.40
2018-01-19T02:35:14.512Z,2.30
2018-01-19T02:37:42.047Z,2.30
2018-01-19T02:40:09.585Z,2.40
2018-01-19T02:42:37.113Z,2.40
2018-01-19T02:45:04.652Z,2.40
2018-01-19T02:47:32.941Z,2.40
2018-01-19T02:50:00.603Z,2.40
2018-01-19T02:52:28.121Z,2.40
2018-01-19T02:54:55.671Z,2.40
2018-01-19T02:57:23.183Z,2.40
2018-01-19T02:59:51.720Z,2.40
2018-01-19T03:02:19.340Z,2.40
2018-01-19T03:04:46.902Z,2.40
2018-01-19T03:07:14.412Z,2.40
2018-01-19T03:09:41.983Z,2.40
2018-01-19T03:12:09.507Z,2.40
2018-01-19T03:14:37.025Z,2.50
2018-01-19T03:17:05.318Z,2.40
2018-01-19T03:19:32.841Z,2.40
2018-01-19T03:22:00.379Z,2.40
2018-01-19T03:24:28.653Z,2.40
2018-01-19T03:26:56.181Z,2.40
2018-01-19T03:29:24.605Z,2.50
2018-01-19T03:31:52.175Z,2.50
2018-01-19T03:34:19.692Z,2.50
2018-01-19T03:36:47.220Z,2.50
2018-01-19T03:39:14.727Z,2.50
2018-01-19T03:41:42.246Z,2.50
2018-01-19T03:44:09.755Z,2.50
2018-01-19T03:46:37.316Z,2.50
2018-01-19T03:49:04.841Z,2.50
2018-01-19T03:51:32.381Z,2.40
2018-01-19T03:53:59.902Z,2.40
2018-01-19T03:56:27.845Z,2.40
2018-01-19T03:58:55.384Z,2.50
2018-01-19T04:01:23.675Z,2.40
2018-01-19T04:03:51.333Z,2.40
2018-01-19T04:06:18.836Z,2.50
2018-01-19T04:08:47.145Z,2.50
2018-01-19T04:11:14.655Z,2.50
2018-01-19T04:13:42.202Z,2.50
2018-01-19T04:16:09.719Z,2.50
2018-01-19T04:18:38.040Z,2.50
2018-01-19T04:21:05.549Z,2.50
2018-01-19T04:23:33.086Z,2.50
2018-01-19T04:26:01.363Z,2.60
2018-01-19T04:28:28.929Z,2.50
2018-01-19T04:30:56.435Z,2.60
2018-01-19T04:33:23.971Z,2.60
2018-01-19T04:35:52.551Z,2.70
2018-01-19T04:38:20.083Z,2.70
2018-01-19T04:40:48.387Z,2.70
2018-01-19T04:43:15.915Z,2.60
2018-01-19T04:45:43.445Z,2.60
2018-01-19T04:48:10.955Z,2.70
2018-01-19T04:50:39.998Z,2.70
2018-01-19T04:53:07.520Z,2.70
2018-01-19T04:55:35.068Z,2.70
2018-01-19T04:58:02.579Z,2.70
2018-01-19T05:00:30.888Z,2.60
2018-01-19T05:02:58.442Z,2.60
2018-01-19T05:05:25.978Z,2.60
2018-01-19T05:07:53.501Z,2.60
2018-01-19T05:10:21.052Z,2.60
2018-01-19T05:12:48.579Z,2.60
2018-01-19T05:15:17.037Z,2.60
2018-01-19T05:17:45.319Z,2.60
2018-01-19T05:20:12.847Z,2.60
2018-01-19T05:22:40.393Z,2.60
2018-01-19T05:25:08.694Z,2.50
2018-01-19T05:27:36.328Z,2.50
2018-01-19T05:30:03.859Z,2.60
2018-01-19T05:32:31.401Z,2.60
2018-01-19T05:34:58.941Z,2.60
2018-01-19T05:37:26.867Z,2.50
2018-01-19T05:39:55.339Z,2.50
2018-01-19T05:42:23.839Z,2.60
2018-01-19T05:44:51.394Z,2.50
2018-01-19T05:47:18.937Z,2.50
2018-01-19T05:49:46.464Z,2.50
2018-01-19T05:52:13.991Z,2.50
2018-01-19T05:54:42.274Z,2.50
2018-01-19T05:57:09.807Z,2.50
2018-01-19T05:59:37.311Z,2.50
2018-01-19T06:02:04.835Z,2.50
2018-01-19T06:04:32.388Z,2.50
2018-01-19T06:06:59.908Z,2.50
2018-01-19T06:09:27.587Z,2.50
2018-01-19T06:11:55.127Z,2.50
2018-01-19T06:14:23.125Z,2.50
2018-01-19T06:16:50.706Z,2.50
2018-01-19T06:19:18.290Z,2.50
2018-01-19T06:21:45.828Z,2.50
2018-01-19T06:24:13.365Z,2.50
2018-01-19T06:26:41.643Z,2.50
2018-01-19T06:29:09.167Z,2.50
2018-01-19T06:31:36.670Z,2.50
2018-01-19T06:34:04.195Z,2.50
2018-01-19T06:36:32.101Z,2.50
2018-01-19T06:38:59.631Z,2.50
2018-01-19T06:41:27.179Z,2.50
2018-01-19T06:43:54.723Z,2.50
2018-01-19T06:46:22.262Z,2.50
2018-01-19T06:48:49.813Z,2.50
2018-01-19T06:51:17.327Z,2.50
2018-01-19T06:53:44.877Z,2.50
2018-01-19T06:56:12.387Z,2.50
2018-01-19T06:58:40.660Z,2.50
2018-01-19T07:01:09.022Z,2.50
2018-01-19T07:03:37.299Z,2.50
2018-01-19T07:06:04.862Z,2.50
2018-01-19T07:08:33.039Z,2.50
2018-01-19T07:11:00.669Z,2.50
2018-01-19T07:13:28.213Z,2.50
2018-01-19T07:15:55.745Z,2.50
2018-01-19T07:18:23.540Z,2.60
2018-01-19T07:20:51.145Z,2.50
2018-01-19T07:23:18.656Z,2.60
2018-01-19T07:25:46.972Z,2.50
2018-01-19T07:28:14.485Z,2.50
2018-01-19T07:30:42.041Z,2.60
2018-01-19T07:33:09.561Z,2.60
2018-01-19T07:35:37.091Z,2.60
2018-01-19T07:38:05.474Z,2.60
2018-01-19T07:43:12.222Z,2.70
2018-01-19T07:45:40.835Z,2.80
2018-01-19T07:48:08.415Z,2.70
2018-01-19T07:50:35.924Z,2.80
2018-01-19T07:53:03.451Z,2.80
2018-01-19T07:55:30.963Z,2.80
2018-01-19T07:57:59.275Z,2.80
2018-01-19T08:00:26.802Z,2.80
2018-01-19T08:02:54.539Z,2.90
2018-01-19T08:05:22.559Z,2.90
2018-01-19T08:07:50.107Z,3.00
2018-01-19T08:10:18.391Z,3.00
2018-01-19T08:12:45.930Z,3.00
2018-01-19T08:15:14.211Z,3.10
2018-01-19T08:17:41.753Z,3.10
2018-01-19T08:20:09.299Z,3.10
2018-01-19T08:22:36.878Z,3.10
2018-01-19T08:25:04.394Z,3.20
2018-01-19T08:27:31.911Z,3.20
2018-01-19T08:30:00.199Z,3.20
2018-01-19T08:32:27.760Z,3.20
2018-01-19T08:34:55.291Z,3.20
2018-01-19T08:37:22.984Z,3.20
2018-01-19T08:39:51.056Z,3.20
2018-01-19T08:42:18.607Z,3.20
2018-01-19T08:44:46.903Z,3.20
2018-01-19T08:47:14.430Z,3.20
2018-01-19T08:49:41.977Z,3.20
2018-01-19T08:52:09.503Z,3.30
2018-01-19T08:54:37.794Z,3.30
2018-01-19T08:57:05.309Z,3.30
2018-01-19T08:59:33.715Z,3.30
2018-01-19T09:02:01.296Z,3.30
2018-01-19T09:04:28.846Z,3.30
2018-01-19T09:06:56.707Z,3.30
2018-01-19T09:09:26.788Z,3.30
2018-01-19T09:11:54.320Z,3.30
2018-01-19T09:14:21.945Z,3.20
2018-01-19T09:16:49.476Z,3.30
2018-01-19T09:19:17.007Z,3.30
2018-01-19T09:21:44.541Z,3.30
2018-01-19T09:24:12.080Z,3.30
2018-01-19T09:26:40.371Z,3.30
2018-01-19T09:29:07.929Z,3.30
2018-01-19T09:31:35.474Z,3.30
2018-01-19T09:34:03.329Z,3.40
2018-01-19T09:36:30.855Z,3.50
2018-01-19T09:38:58.526Z,3.60
2018-01-19T09:41:26.851Z,3.70
2018-01-19T09:43:54.440Z,3.70
2018-01-19T09:46:21.997Z,3.70
2018-01-19T09:48:49.515Z,3.80
2018-01-19T09:51:17.151Z,3.80
2018-01-19T09:53:44.660Z,3.80
2018-01-19T09:56:13.951Z,3.80
2018-01-19T09:58:41.471Z,3.70
2018-01-19T10:01:08.994Z,3.90
2018-01-19T10:03:38.955Z,4.10
2018-01-19T10:06:06.476Z,4.10
2018-01-19T10:08:34.771Z,4.10
2018-01-19T10:11:02.288Z,4.20
2018-01-19T10:13:30.691Z,4.30
2018-01-19T10:15:58.207Z,4.30
2018-01-19T10:18:25.813Z,4.20
2018-01-19T10:20:54.539Z,4.20
2018-01-19T10:23:23.140Z,4.20
2018-01-19T10:25:50.666Z,4.10
2018-01-19T10:28:18.203Z,4.10
2018-01-19T10:30:45.727Z,4.10
2018-01-19T10:33:13.255Z,4.10
2018-01-19T10:35:41.535Z,4.00
2018-01-19T10:38:09.069Z,4.00
2018-01-19T10:40:36.754Z,4.00
2018-01-19T10:43:04.323Z,4.00
2018-01-19T10:45:32.607Z,4.00
2018-01-19T10:48:01.040Z,4.10
2018-01-19T10:50:28.966Z,4.10
2018-01-19T10:52:57.416Z,4.10
2018-01-19T10:55:25.004Z,4.10
2018-01-19T10:57:52.619Z,4.10
2018-01-19T11:00:20.148Z,4.10
2018-01-19T11:02:47.656Z,4.10
2018-01-19T11:05:15.200Z,4.00
2018-01-19T11:07:42.726Z,4.00
2018-01-19T11:10:10.363Z,4.10
2018-01-19T11:12:37.894Z,4.20
2018-01-19T11:15:05.584Z,4.30
2018-01-19T11:17:33.854Z,4.60
2018-01-19T11:20:02.143Z,4.70
2018-01-19T11:22:29.695Z,4.60
2018-01-19T11:24:57.242Z,4.60
2018-01-19T11:27:24.755Z,4.60
2018-01-19T11:29:53.063Z,4.60
2018-01-19T11:32:20.581Z,4.60
2018-01-19T11:34:48.174Z,4.60
2018-01-19T11:37:15.698Z,4.70
2018-01-19T11:39:43.241Z,4.60
2018-01-19T11:42:10.863Z,4.50
2018-01-19T11:44:38.427Z,4.50
2018-01-19T11:47:05.937Z,4.50
2018-01-19T11:49:34.215Z,4.40
2018-01-19T11:52:01.767Z,4.40
2018-01-19T11:54:29.304Z,4.40
2018-01-19T11:56:56.891Z,4.40
2018-01-19T11:59:24.433Z,4.50
2018-01-19T12:01:51.981Z,4.60
2018-01-19T12:04:19.522Z,4.60
2018-01-19T12:06:47.093Z,4.70
2018-01-19T12:09:14.693Z,4.60
2018-01-19T12:11:42.239Z,4.60
2018-01-19T12:14:09.819Z,4.60
2018-01-19T12:16:37.428Z,4.60
2018-01-19T12:19:04.972Z,4.60
2018-01-19T12:21:32.509Z,4.50
2018-01-19T12:24:00.073Z,4.60
2018-01-19T12:26:27.611Z,4.70
2018-01-19T12:28:55.462Z,4.60
2018-01-19T12:31:23.105Z,4.60
2018-01-19T12:33:50.729Z,4.70
2018-01-19T12:36:18.370Z,4.70
2018-01-19T12:38:45.978Z,4.70
2018-01-19T12:41:13.499Z,4.60
2018-01-19T12:43:41.028Z,4.60
2018-01-19T12:46:09.136Z,4.60
2018-01-19T12:48:37.461Z,4.50
2018-01-19T12:51:04.975Z,4.50
2018-01-19T12:53:32.542Z,4.50
2018-01-19T12:56:00.113Z,4.40
2018-01-19T12:58:27.652Z,4.50
2018-01-19T13:00:55.184Z,4.50
2018-01-19T13:03:22.889Z,4.50
2018-01-19T13:05:51.236Z,4.40
2018-01-19T13:08:18.779Z,4.30
2018-01-19T13:10:47.073Z,4.50
2018-01-19T13:13:14.600Z,4.40
2018-01-19T13:15:43.688Z,4.50
2018-01-19T13:18:11.220Z,4.50
2018-01-19T13:20:39.497Z,4.50
2018-01-19T13:23:07.048Z,4.50
2018-01-19T13:25:34.689Z,4.60
2018-01-19T13:28:02.199Z,4.50
2018-01-19T13:30:29.723Z,4.60
2018-01-19T13:32:57.249Z,4.60
2018-01-19T13:35:24.807Z,4.60
2018-01-19T13:37:52.351Z,4.60
2018-01-19T13:40:19.898Z,4.60
2018-01-19T13:42:47.434Z,4.50
2018-01-19T13:45:14.963Z,4.50
2018-01-19T13:47:43.412Z,4.50
2018-01-19T13:50:10.952Z,4.50
2018-01-19T13:52:38.524Z,4.50
2018-01-19T13:55:06.061Z,4.50
2018-01-19T13:57:33.622Z,4.50
2018-01-19T14:00:01.148Z,4.40
2018-01-19T14:02:28.670Z,4.40
2018-01-19T14:04:56.238Z,4.40
2018-01-19T14:07:23.891Z,4.40
2018-01-19T14:09:51.481Z,4.40
2018-01-19T14:12:19.080Z,4.50
2018-01-19T14:14:46.825Z,4.50
2018-01-19T14:17:14.390Z,4.50
2018-01-19T14:19:41.899Z,4.50
2018-01-19T14:22:09.427Z,4.60
2018-01-19T14:24:36.939Z,4.60
2018-01-19T14:27:04.472Z,4.60
2018-01-19T14:29:31.983Z,4.60
2018-01-19T14:31:59.524Z,4.50
2018-01-19T14:34:27.051Z,4.50
2018-01-19T14:36:54.611Z,4.50
2018-01-19T14:39:23.475Z,4.40
2018-01-19T14:41:51.009Z,4.40
2018-01-19T14:44:18.577Z,4.30
2018-01-19T14:46:46.111Z,4.30
2018-01-19T14:49:13.635Z,4.30
2018-01-19T14:51:41.964Z,4.30
2018-01-19T14:54:09.477Z,4.30
2018-01-19T14:56:37.001Z,4.30
2018-01-19T14:59:04.612Z,4.30
2018-01-19T15:01:32.951Z,4.20
2018-01-19T15:04:00.499Z,4.20
2018-01-19T15:06:28.012Z,4.20
2018-01-19T15:08:55.629Z,4.20
2018-01-19T15:11:24.555Z,4.20
2018-01-19T15:13:52.253Z,4.20
2018-01-19T15:16:20.559Z,4.20
2018-01-19T15:18:48.136Z,4.20
2018-01-19T15:21:15.660Z,4.20
2018-01-19T15:23:43.195Z,4.20
2018-01-19T15:26:10.730Z,4.20
2018-01-19T15:28:38.246Z,4.20
2018-01-19T15:31:06.026Z,4.10
2018-01-19T15:33:33.551Z,4.10
2018-01-19T15:36:01.370Z,4.10
2018-01-19T15:38:29.702Z,4.10
2018-01-19T15:40:57.351Z,4.10
2018-01-19T15:43:25.302Z,4.10
2018-01-19T15:45:54.414Z,4.00
2018-01-19T15:48:22.703Z,4.10
2018-01-19T15:50:50.239Z,4.10
2018-01-19T15:53:17.758Z,4.00
2018-01-19T15:55:46.052Z,4.00
2018-01-19T15:58:13.577Z,4.00
2018-01-19T16:00:41.922Z,4.00
2018-01-19T16:03:10.223Z,4.10
2018-01-19T16:05:37.757Z,4.10
2018-01-19T16:08:05.380Z,4.10
2018-01-19T16:10:32.891Z,4.10
2018-01-19T16:13:00.525Z,4.00
2018-01-19T16:15:28.049Z,4.10
2018-01-19T16:17:55.639Z,4.10
2018-01-19T16:20:23.679Z,4.10
2018-01-19T16:22:52.451Z,4.00
2018-01-19T16:25:20.039Z,4.00
2018-01-19T16:27:48.191Z,3.90
2018-01-19T16:30:15.712Z,4.00
2018-01-19T16:32:43.269Z,3.90
2018-01-19T16:35:10.778Z,3.90
2018-01-19T16:37:38.311Z,3.90
2018-01-19T16:40:05.846Z,3.90
2018-01-19T16:42:33.392Z,3.80
2018-01-19T16:45:00.904Z,3.80
2018-01-19T16:47:28.473Z,3.80
2018-01-19T16:49:55.982Z,3.80
2018-01-19T16:52:24.406Z,3.80
2018-01-19T16:54:51.955Z,3.80
2018-01-19T16:57:19.473Z,3.90
2018-01-19T16:59:47.027Z,3.90
2018-01-19T17:02:14.594Z,3.90
2018-01-19T17:04:42.123Z,3.90
2018-01-19T17:07:09.632Z,3.80
2018-01-19T17:09:37.202Z,3.80
2018-01-19T17:12:04.735Z,3.80
2018-01-19T17:14:32.268Z,3.80
2018-01-19T17:17:00.548Z,3.90
2018-01-19T17:19:28.106Z,3.80
2018-01-19T17:21:56.627Z,3.90
2018-01-19T17:24:25.007Z,3.90
2018-01-19T17:26:52.552Z,3.90
2018-01-19T17:29:20.868Z,3.90
2018-01-19T17:31:48.426Z,3.90
2018-01-19T17:34:15.996Z,3.90
2018-01-19T17:36:44.275Z,4.00
2018-01-19T17:39:11.830Z,3.90
2018-01-19T17:41:39.348Z,4.00
2018-01-19T17:44:07.689Z,4.00
2018-01-19T17:46:35.211Z,4.00
2018-01-19T17:49:02.737Z,4.10
2018-01-19T17:51:30.281Z,4.10
2018-01-19T17:53:58.760Z,4.10
2018-01-19T17:56:26.701Z,4.10
2018-01-19T17:58:54.375Z,4.00
2018-01-19T18:01:21.931Z,4.00
2018-01-19T18:03:50.463Z,4.00
2018-01-19T18:06:18.047Z,3.90
2018-01-19T18:08:47.024Z,3.80
2018-01-19T18:11:16.061Z,3.70
2018-01-19T18:13:43.713Z,3.70
2018-01-19T18:16:11.244Z,3.80
2018-01-19T18:18:38.761Z,3.70
2018-01-19T18:21:06.348Z,3.70
2018-01-19T18:23:33.880Z,3.60
2018-01-19T18:26:01.411Z,3.50
2018-01-19T18:28:28.967Z,3.50
2018-01-19T18:30:56.626Z,3.50
2018-01-19T18:33:24.431Z,3.40
2018-01-19T18:35:51.991Z,3.40
2018-01-19T18:38:19.507Z,3.40
2018-01-19T18:40:47.011Z,3.40
2018-01-19T18:43:14.550Z,3.40
2018-01-19T18:45:42.067Z,3.40
2018-01-19T18:48:09.615Z,3.40
2018-01-19T18:50:37.127Z,3.50
2018-01-19T18:53:04.667Z,3.50
2018-01-19T18:55:32.169Z,3.50
2018-01-19T18:57:59.720Z,3.50
2018-01-19T19:00:27.255Z,3.50
2018-01-19T19:02:54.844Z,3.40
2018-01-19T19:05:22.664Z,3.40
2018-01-19T19:07:50.234Z,3.40
2018-01-19T19:10:17.761Z,3.40
2018-01-19T19:12:45.284Z,3.40
2018-01-19T19:15:12.795Z,3.30
2018-01-19T19:17:40.310Z,3.30
2018-01-19T19:20:07.839Z,3.30
2018-01-19T19:22:35.412Z,3.30
2018-01-19T19:25:03.710Z,3.30
2018-01-19T19:27:31.658Z,3.30
2018-01-19T19:29:59.332Z,3.30
2018-01-19T19:32:27.072Z,3.30
2018-01-19T19:34:55.135Z,3.30
2018-01-19T19:37:23.003Z,3.30
2018-01-19T19:39:50.614Z,3.30
2018-01-19T19:42:18.883Z,3.20
2018-01-19T19:44:46.497Z,3.20
2018-01-19T19:47:14.807Z,3.20
2018-01-19T19:49:42.336Z,3.20
2018-01-19T19:52:09.862Z,3.20
2018-01-19T19:54:37.433Z,3.20
2018-01-19T19:57:04.974Z,3.10
2018-01-19T19:59:32.583Z,3.20
2018-01-19T20:02:00.134Z,3.20
2018-01-19T20:04:27.670Z,3.20
2018-01-19T20:06:55.955Z,3.20
2018-01-19T20:09:23.523Z,3.20
2018-01-19T20:11:51.084Z,3.20
2018-01-19T20:14:18.650Z,3.20
2018-01-19T20:16:46.190Z,3.20
2018-01-19T20:19:13.713Z,3.20
2018-01-19T20:21:41.264Z,3.20
2018-01-19T20:24:08.792Z,3.20
2018-01-19T20:26:36.324Z,3.20
2018-01-19T20:29:03.869Z,3.20
2018-01-19T20:31:31.399Z,3.20
2018-01-19T20:33:58.968Z,3.20
2018-01-19T20:36:26.509Z,3.20
2018-01-19T20:38:56.913Z,3.20
2018-01-19T20:41:25.171Z,3.10
2018-01-19T20:43:52.742Z,3.10
2018-01-19T20:46:20.352Z,3.20
2018-01-19T20:48:47.867Z,3.20
2018-01-19T20:51:16.158Z,3.20
2018-01-19T20:53:43.672Z,3.20
2018-01-19T20:56:11.257Z,3.30
2018-01-19T20:58:38.763Z,3.30
2018-01-19T21:01:07.094Z,3.30
2018-01-19T21:03:34.636Z,3.30
2018-01-19T21:06:02.181Z,3.30
2018-01-19T21:08:29.753Z,3.30
2018-01-19T21:10:58.035Z,3.30
2018-01-19T21:13:25.610Z,3.30
2018-01-19T21:15:53.163Z,3.30
2018-01-19T21:18:20.739Z,3.40
2018-01-19T21:20:48.353Z,3.40
2018-01-19T21:23:16.018Z,3.40
2018-01-19T21:25:45.143Z,3.30
2018-01-19T21:28:12.695Z,3.30
2018-01-19T21:30:40.222Z,3.20
2018-01-19T21:33:07.764Z,3.30
2018-01-19T21:35:35.305Z,3.30
2018-01-19T21:38:03.583Z,3.30
2018-01-19T21:40:31.129Z,3.20
2018-01-19T21:42:58.647Z,3.30
2018-01-19T21:45:26.975Z,3.30
2018-01-19T21:47:54.561Z,3.30
2018-01-19T21:50:22.756Z,3.30
2018-01-19T21:52:50.287Z,3.30
2018-01-19T21:55:17.913Z,3.30
2018-01-19T21:57:45.445Z,3.30
2018-01-19T22:00:13.759Z,3.30
2018-01-19T22:02:41.277Z,3.30
2018-01-19T22:05:09.727Z,3.30
2018-01-19T22:07:38.073Z,3.30
2018-01-19T22:10:05.631Z,3.30
2018-01-19T22:12:33.915Z,3.20
2018-01-19T22:15:01.443Z,3.20
2018-01-19T22:17:29.725Z,3.20
2018-01-19T22:19:58.543Z,3.10
2018-01-19T22:22:26.136Z,3.10
2018-01-19T22:24:53.791Z,3.10
2018-01-19T22:27:21.323Z,2.90
2018-01-19T22:29:48.864Z,2.80
2018-01-19T22:32:17.612Z,2.80
2018-01-19T22:34:45.136Z,2.70
2018-01-19T22:37:14.205Z,2.50
2018-01-19T22:39:41.719Z,2.50
2018-01-19T22:42:09.262Z,2.40
2018-01-19T22:44:36.782Z,2.30
2018-01-19T22:47:05.075Z,2.20
2018-01-19T22:49:32.583Z,2.10
2018-01-19T22:52:00.935Z,2.10
2018-01-19T22:54:29.874Z,2.10
2018-01-19T22:56:57.515Z,2.00
2018-01-19T22:59:25.101Z,2.00
2018-01-19T23:01:52.743Z,2.00
2018-01-19T23:04:21.052Z,1.90
2018-01-19T23:06:48.675Z,1.90
2018-01-19T23:09:17.179Z,2.00
2018-01-19T23:11:44.707Z,2.00
2018-01-19T23:14:12.255Z,2.00
2018-01-19T23:16:39.811Z,2.00
2018-01-19T23:19:07.425Z,2.00
2018-01-19T23:21:35.696Z,2.10
2018-01-19T23:24:03.242Z,2.10
2018-01-19T23:26:30.826Z,2.10
2018-01-19T23:28:58.561Z,2.00
2018-01-19T23:31:26.217Z,2.00
2018-01-19T23:33:54.067Z,1.90
2018-01-19T23:36:21.743Z,1.90
2018-01-19T23:38:49.287Z,1.80
2018-01-19T23:41:16.819Z,1.80
2018-01-19T23:43:44.360Z,1.80
2018-01-19T23:46:11.870Z,1.90
2018-01-19T23:48:39.398Z,2.00
2018-01-19T23:51:06.915Z,1.90
2018-01-19T23:53:34.440Z,1.90
2018-01-19T23:56:02.066Z,2.00
2018-01-19T23:58:29.592Z,2.10
